Terminal Aerodrome Forecast
Issued by NWS Sioux Falls, SD

Home | Current Version | Previous Version | Graphics & Text | Print | Product List | Glossary On
Versions: 1 2 3 4 5 6 7 8 9 10 11 12 13 14 15 16 17
710
FTUS43 KFSD 081830
TAFFSD
TAF
KFSD 081830Z 0818/0918 31017G25KT P6SM FEW015 SCT060
     FM082200 31014KT P6SM FEW020 SCT200
     FM090200 31009KT P6SM SCT200
     FM090800 31005KT P6SM FEW200
     FM091700 00000KT P6SM BKN100=

USA.gov is the U.S. government's official web portal to all federal, state and local government web resources and services.